Time;durP1;ratioP1;P1;durP2;ratioP2;P2;SDS_P1;SDS_P2;PMS_P1;PMS_P2;Temp;Humidity;BMP_temperature;BMP_pressure;BME280_temperature;BME280_humidity;BME280_pressure;Samples;Min_cycle;Max_cycle;Signal;HPM_P1;HPM_P2
2022/06/10 00:00:42;;;;;;;10.38;6.50;;;;;;;;;;5038518;28;20043;-67
2022/06/10 00:03:10;;;;;;;8.65;6.75;;;;;;;;;;5033085;28;20033;-67
2022/06/10 00:05:39;;;;;;;8.00;7.05;;;;;;;;;;5037981;28;20052;-67
2022/06/10 00:08:11;;;;;;;7.70;7.00;;;;;;;;;;5041227;28;20033;-67
2022/06/10 00:10:38;;;;;;;10.27;7.30;;;;;;;;;;5033050;28;20120;-67
2022/06/10 00:13:04;;;;;;;7.85;7.05;;;;;;;;;;5034615;28;20029;-67
2022/06/10 00:15:31;;;;;;;7.45;6.75;;;;;;;;;;5040253;28;20115;-67
2022/06/10 00:17:58;;;;;;;8.00;7.13;;;;;;;;;;5038313;28;20740;-67
2022/06/10 00:20:26;;;;;;;6.95;6.32;;;;;;;;;;5034514;28;20380;-67
2022/06/10 00:22:52;;;;;;;10.23;6.93;;;;;;;;;;5035493;28;20036;-67
2022/06/10 00:25:19;;;;;;;7.03;6.32;;;;;;;;;;5039706;28;20045;-67
2022/06/10 00:27:46;;;;;;;7.45;6.85;;;;;;;;;;5031764;28;20044;-67
2022/06/10 00:30:13;;;;;;;7.93;6.97;;;;;;;;;;5041071;28;20035;-67
2022/06/10 00:32:39;;;;;;;7.80;6.75;;;;;;;;;;5036377;28;20393;-66
2022/06/10 00:35:05;;;;;;;6.78;6.18;;;;;;;;;;5034214;28;20036;-68
2022/06/10 00:37:31;;;;;;;7.45;6.53;;;;;;;;;;5031671;28;20116;-67
2022/06/10 00:39:57;;;;;;;9.57;6.90;;;;;;;;;;5041818;28;20107;-67
2022/06/10 00:42:23;;;;;;;10.73;6.80;;;;;;;;;;5038958;28;20037;-68
2022/06/10 00:44:54;;;;;;;6.97;6.28;;;;;;;;;;5030229;28;20116;-67
2022/06/10 00:47:32;;;;;;;8.43;7.00;;;;;;;;;;5037123;28;20029;-67
2022/06/10 00:50:27;;;;;;;11.80;7.15;;;;;;;;;;5040389;28;20040;-67
2022/06/10 00:53:00;;;;;;;8.88;6.95;;;;;;;;;;5023468;28;20077;-68
2022/06/10 00:55:29;;;;;;;7.40;6.80;;;;;;;;;;5036121;28;20048;-68
2022/06/10 00:58:26;;;;;;;7.85;7.05;;;;;;;;;;5037711;28;20730;-68
2022/06/10 01:00:52;;;;;;;7.53;6.80;;;;;;;;;;5031763;28;20033;-68
2022/06/10 01:03:18;;;;;;;7.95;7.13;;;;;;;;;;5039336;28;20048;-68
2022/06/10 01:05:43;;;;;;;11.05;7.22;;;;;;;;;;5037021;28;20041;-67
2022/06/10 01:08:19;;;;;;;9.80;7.45;;;;;;;;;;5037378;28;20032;-67
2022/06/10 01:10:57;;;;;;;7.78;7.07;;;;;;;;;;5031049;28;20489;-68
2022/06/10 01:13:26;;;;;;;9.65;7.32;;;;;;;;;;5039939;28;20063;-68
2022/06/10 01:16:07;;;;;;;;;;;;;;;;;;5040854;28;20137;-68
2022/06/10 01:18:57;;;;;;;8.38;6.53;;;;;;;;;;5033617;28;20360;-68
2022/06/10 01:21:51;;;;;;;8.30;7.35;;;;;;;;;;5041124;28;20061;-68
2022/06/10 01:24:54;;;;;;;8.05;6.78;;;;;;;;;;5038742;28;20071;-67
2022/06/10 01:27:48;;;;;;;7.65;6.82;;;;;;;;;;5039544;28;20125;-67
2022/06/10 01:30:51;;;;;;;7.85;7.05;;;;;;;;;;5035696;28;20377;-67
2022/06/10 01:33:36;;;;;;;7.80;7.10;;;;;;;;;;5039622;28;20567;-68
2022/06/10 01:36:28;;;;;;;10.18;7.07;;;;;;;;;;5024449;28;20049;-67
2022/06/10 01:39:25;;;;;;;9.73;7.00;;;;;;;;;;5034819;28;20037;-67
2022/06/10 01:42:35;;;;;;;8.75;7.03;;;;;;;;;;5013694;28;20761;-68
2022/06/10 01:45:06;;;;;;;10.88;7.05;;;;;;;;;;4997719;28;20045;-68
2022/06/10 01:47:54;;;;;;;7.57;6.72;;;;;;;;;;4979654;28;20103;-68
2022/06/10 01:50:29;;;;;;;7.70;6.93;;;;;;;;;;4993272;28;20481;-67
2022/06/10 01:53:02;;;;;;;7.43;6.70;;;;;;;;;;4992774;28;20042;-68
2022/06/10 01:55:40;;;;;;;8.80;6.93;;;;;;;;;;4992545;28;20121;-68
2022/06/10 01:58:09;;;;;;;9.25;7.47;;;;;;;;;;4996789;28;20453;-68
2022/06/10 02:00:38;;;;;;;16.10;7.00;;;;;;;;;;4999071;28;20042;-68
2022/06/10 02:03:12;;;;;;;8.18;7.22;;;;;;;;;;4997488;28;20033;-68
2022/06/10 02:05:59;;;;;;;7.63;6.85;;;;;;;;;;4994871;28;20045;-67
2022/06/10 02:08:31;;;;;;;7.68;7.07;;;;;;;;;;4992040;28;20104;-67
2022/06/10 02:11:08;;;;;;;10.65;7.53;;;;;;;;;;4999197;28;20668;-68
2022/06/10 02:13:58;;;;;;;7.95;7.25;;;;;;;;;;4989664;28;20046;-67
2022/06/10 02:16:31;;;;;;;13.00;7.55;;;;;;;;;;4997731;28;20436;-67
2022/06/10 02:19:00;;;;;;;8.25;7.20;;;;;;;;;;4997294;28;20117;-67
2022/06/10 02:21:35;;;;;;;11.55;7.53;;;;;;;;;;5028605;28;20041;-67
2022/06/10 02:24:12;;;;;;;8.93;7.88;;;;;;;;;;5018618;28;20027;-67
2022/06/10 02:26:38;;;;;;;9.27;7.65;;;;;;;;;;5035745;28;20029;-67
2022/06/10 02:29:10;;;;;;;8.50;7.38;;;;;;;;;;5039311;28;20039;-67
2022/06/10 02:31:48;;;;;;;9.27;7.43;;;;;;;;;;5037246;28;20075;-67
2022/06/10 02:34:14;;;;;;;9.65;7.53;;;;;;;;;;5034450;28;20021;-67
2022/06/10 02:36:58;;;;;;;9.20;7.35;;;;;;;;;;5040512;28;20075;-68
2022/06/10 02:39:23;;;;;;;8.95;7.88;;;;;;;;;;5038131;28;20549;-67
2022/06/10 02:42:03;;;;;;;12.25;7.65;;;;;;;;;;5036463;28;20029;-65
2022/06/10 02:44:51;;;;;;;10.38;8.43;;;;;;;;;;5023250;28;20631;-68
2022/06/10 02:47:40;;;;;;;8.18;7.07;;;;;;;;;;5040621;28;20037;-68
2022/06/10 02:50:09;;;;;;;12.23;8.00;;;;;;;;;;5037739;28;20037;-68
2022/06/10 02:52:36;;;;;;;9.38;7.05;;;;;;;;;;5036171;28;20527;-69
2022/06/10 02:55:12;;;;;;;9.00;7.72;;;;;;;;;;5041405;28;20053;-68
2022/06/10 03:03:26;;;;;;;9.23;8.13;;;;;;;;;;5027890;28;20042;-67
2022/06/10 03:06:05;;;;;;;8.75;7.57;;;;;;;;;;5039318;28;20051;-67
2022/06/10 03:08:37;;;;;;;12.57;7.95;;;;;;;;;;5039981;28;20127;-67
2022/06/10 03:11:35;;;;;;;9.70;8.13;;;;;;;;;;5037768;28;20724;-67
2022/06/10 03:14:37;;;;;;;7.80;6.75;;;;;;;;;;5037085;28;20037;-68
2022/06/10 03:17:33;;;;;;;9.57;8.07;;;;;;;;;;5039168;28;20051;-67
2022/06/10 03:20:11;;;;;;;13.20;7.75;;;;;;;;;;5037009;28;20063;-67
2022/06/10 03:22:54;;;;;;;8.15;7.35;;;;;;;;;;5037824;28;20036;-67
2022/06/10 03:25:33;;;;;;;8.65;7.60;;;;;;;;;;5034350;28;20040;-67
2022/06/10 03:28:31;;;;;;;8.10;7.30;;;;;;;;;;5037994;28;20040;-67
2022/06/10 03:31:06;;;;;;;9.48;8.30;;;;;;;;;;5022169;28;20056;-67
2022/06/10 03:33:44;;;;;;;9.23;7.90;;;;;;;;;;5036522;28;20029;-67
2022/06/10 03:36:16;;;;;;;8.68;7.88;;;;;;;;;;5031824;28;20045;-67
2022/06/10 03:38:45;;;;;;;9.85;7.50;;;;;;;;;;5034456;28;20123;-67
2022/06/10 03:41:41;;;;;;;9.32;7.45;;;;;;;;;;5038965;28;20053;-67
2022/06/10 03:44:12;;;;;;;11.15;8.15;;;;;;;;;;5011641;28;20063;-67
2022/06/10 03:46:39;;;;;;;11.40;8.55;;;;;;;;;;5010142;28;20123;-67
2022/06/10 03:49:11;;;;;;;8.10;7.40;;;;;;;;;;5015634;28;20042;-67
2022/06/10 03:51:38;;;;;;;9.38;7.90;;;;;;;;;;5008396;28;20037;-67
2022/06/10 03:54:04;;;;;;;11.07;8.05;;;;;;;;;;5014988;28;20037;-67
2022/06/10 03:56:31;;;;;;;8.60;7.80;;;;;;;;;;5008909;28;20067;-67
2022/06/10 03:58:58;;;;;;;9.65;7.28;;;;;;;;;;5011788;28;20424;-66
2022/06/10 04:01:23;;;;;;;8.32;7.63;;;;;;;;;;5019616;28;20048;-67
2022/06/10 04:03:49;;;;;;;9.02;7.65;;;;;;;;;;5014099;28;20038;-67
2022/06/10 04:06:16;;;;;;;11.35;8.05;;;;;;;;;;5008067;28;20041;-67
2022/06/10 04:08:42;;;;;;;7.80;7.13;;;;;;;;;;5013800;28;20117;-67
2022/06/10 04:11:08;;;;;;;11.20;8.20;;;;;;;;;;5008488;28;20041;-66
2022/06/10 04:13:34;;;;;;;10.98;7.75;;;;;;;;;;5010078;28;20049;-67
2022/06/10 04:15:59;;;;;;;7.60;6.80;;;;;;;;;;5015849;28;20056;-68
2022/06/10 04:18:25;;;;;;;8.70;6.95;;;;;;;;;;5010290;28;20041;-66
2022/06/10 04:20:51;;;;;;;8.02;7.00;;;;;;;;;;5027348;22;20034;-76
2022/06/10 04:23:16;;;;;;;7.55;6.57;;;;;;;;;;5011102;28;20436;-76
2022/06/10 04:25:44;;;;;;;7.57;6.85;;;;;;;;;;5014353;28;20064;-76
2022/06/10 04:28:11;;;;;;;6.93;6.25;;;;;;;;;;5015367;28;20615;-74
2022/06/10 04:30:45;;;;;;;6.97;6.38;;;;;;;;;;5014997;28;20033;-78
2022/06/10 04:33:11;;;;;;;8.13;6.47;;;;;;;;;;5014768;28;20038;-78
2022/06/10 04:35:39;;;;;;;6.85;6.35;;;;;;;;;;5016594;28;20120;-77
2022/06/10 04:38:05;;;;;;;6.70;6.10;;;;;;;;;;5017805;28;20029;-77
2022/06/10 04:40:33;;;;;;;6.85;6.25;;;;;;;;;;5018940;28;20034;-76
2022/06/10 04:42:59;;;;;;;7.18;6.47;;;;;;;;;;5018228;28;20572;-76
2022/06/10 04:45:30;;;;;;;8.35;6.60;;;;;;;;;;5022344;28;20083;-76
2022/06/10 04:47:56;;;;;;;10.35;6.40;;;;;;;;;;5012154;28;20666;-76
2022/06/10 04:50:24;;;;;;;7.43;6.65;;;;;;;;;;5024107;28;20033;-77
2022/06/10 04:52:51;;;;;;;14.07;6.90;;;;;;;;;;5024797;28;20068;-76
2022/06/10 04:55:17;;;;;;;7.10;6.25;;;;;;;;;;5018824;28;20038;-77
2022/06/10 04:57:43;;;;;;;8.82;6.80;;;;;;;;;;5018333;28;20048;-77
2022/06/10 05:00:15;;;;;;;9.82;6.57;;;;;;;;;;5024643;28;20033;-76
2022/06/10 05:02:41;;;;;;;7.80;7.00;;;;;;;;;;5018587;28;20065;-77
2022/06/10 05:05:07;;;;;;;8.13;6.90;;;;;;;;;;5018459;28;20042;-77
2022/06/10 05:07:33;;;;;;;7.35;6.68;;;;;;;;;;5021780;28;20374;-76
2022/06/10 05:09:59;;;;;;;7.32;6.57;;;;;;;;;;5024593;28;20041;-77
2022/06/10 05:12:24;;;;;;;8.43;6.50;;;;;;;;;;5016550;28;20026;-77
2022/06/10 05:14:50;;;;;;;7.32;6.68;;;;;;;;;;5018032;28;20029;-76
2022/06/10 05:17:15;;;;;;;8.60;6.47;;;;;;;;;;5021403;28;20565;-76
2022/06/10 05:19:41;;;;;;;7.80;6.82;;;;;;;;;;5018237;28;20041;-76
2022/06/10 05:22:07;;;;;;;7.05;6.32;;;;;;;;;;5018840;28;20416;-76
2022/06/10 05:24:33;;;;;;;12.25;6.90;;;;;;;;;;5019333;28;20037;-76
2022/06/10 05:26:59;;;;;;;6.72;6.13;;;;;;;;;;5017331;28;20039;-76
2022/06/10 05:29:25;;;;;;;7.20;6.43;;;;;;;;;;5019192;28;20069;-76
2022/06/10 05:31:51;;;;;;;6.78;6.13;;;;;;;;;;5022099;28;20120;-76
2022/06/10 05:37:00;;;;;;;7.05;6.50;;;;;;;;;;5017969;28;20042;-76
2022/06/10 05:39:26;;;;;;;12.32;6.85;;;;;;;;;;5014138;28;20042;-76
2022/06/10 05:42:06;;;;;;;7.20;6.43;;;;;;;;;;5022267;28;20129;-76
2022/06/10 05:44:41;;;;;;;8.10;6.80;;;;;;;;;;5012339;28;20048;-76
2022/06/10 05:47:09;;;;;;;7.40;6.70;;;;;;;;;;5019752;28;20116;-75
2022/06/10 05:49:41;;;;;;;7.80;6.28;;;;;;;;;;5018022;28;20061;-75
2022/06/10 05:52:10;;;;;;;8.20;6.32;;;;;;;;;;5023259;28;20029;-75
2022/06/10 05:54:40;;;;;;;6.70;6.20;;;;;;;;;;5014974;28;20037;-76
2022/06/10 05:57:07;;;;;;;7.72;6.20;;;;;;;;;;5019920;28;20037;-75
2022/06/10 05:59:36;;;;;;;6.47;5.88;;;;;;;;;;5015995;28;20056;-76
2022/06/10 06:02:05;;;;;;;8.10;6.53;;;;;;;;;;5015578;28;20048;-76
2022/06/10 06:04:31;;;;;;;8.02;6.10;;;;;;;;;;5020813;28;20547;-76
2022/06/10 06:06:57;;;;;;;6.55;5.95;;;;;;;;;;5022008;28;20065;-76
2022/06/10 06:09:22;;;;;;;6.45;5.95;;;;;;;;;;5024336;28;20393;-76
2022/06/10 06:11:50;;;;;;;9.27;6.03;;;;;;;;;;5011638;28;20606;-76
2022/06/10 06:14:18;;;;;;;8.25;6.28;;;;;;;;;;5015940;28;20025;-76
2022/06/10 06:16:51;;;;;;;6.53;5.78;;;;;;;;;;5019978;28;20037;-76
2022/06/10 06:19:17;;;;;;;6.25;5.68;;;;;;;;;;5017353;28;20079;-76
2022/06/10 06:21:43;;;;;;;7.72;6.88;;;;;;;;;;5017421;28;20041;-76
2022/06/10 06:24:08;;;;;;;8.10;5.88;;;;;;;;;;5023977;28;20187;-76
2022/06/10 06:26:34;;;;;;;6.13;5.57;;;;;;;;;;5021464;28;20763;-76
2022/06/10 06:29:00;;;;;;;8.98;6.25;;;;;;;;;;5020349;28;20056;-76
2022/06/10 06:31:25;;;;;;;6.80;5.93;;;;;;;;;;5017390;28;20033;-76
2022/06/10 06:33:51;;;;;;;6.32;5.82;;;;;;;;;;5019412;28;20075;-76
2022/06/10 06:36:23;;;;;;;6.22;5.72;;;;;;;;;;5020947;28;20056;-76
2022/06/10 06:38:49;;;;;;;8.63;5.70;;;;;;;;;;5016550;28;20135;-76
2022/06/10 06:41:15;;;;;;;8.90;5.72;;;;;;;;;;5022088;28;20515;-76
2022/06/10 06:43:42;;;;;;;6.07;5.50;;;;;;;;;;5020747;28;20065;-76
2022/06/10 06:46:12;;;;;;;6.90;5.93;;;;;;;;;;5016084;28;20111;-77
2022/06/10 06:48:38;;;;;;;8.43;6.30;;;;;;;;;;5018052;28;20124;-77
2022/06/10 06:51:03;;;;;;;7.40;5.97;;;;;;;;;;5019262;28;20037;-77
2022/06/10 06:53:29;;;;;;;6.88;5.53;;;;;;;;;;5017184;28;20072;-76
2022/06/10 06:55:56;;;;;;;9.05;6.10;;;;;;;;;;5014091;28;20125;-77
2022/06/10 06:58:22;;;;;;;8.25;5.70;;;;;;;;;;5019872;28;20073;-77
2022/06/10 07:00:48;;;;;;;7.18;5.60;;;;;;;;;;5018237;28;20131;-77
2022/06/10 07:03:14;;;;;;;6.63;5.68;;;;;;;;;;5017008;28;20050;-77
2022/06/10 07:05:41;;;;;;;6.88;5.65;;;;;;;;;;5017985;28;20047;-77
2022/06/10 07:08:09;;;;;;;10.65;5.80;;;;;;;;;;5018348;28;20029;-76
2022/06/10 07:10:34;;;;;;;8.80;5.30;;;;;;;;;;5016180;28;20113;-76
2022/06/10 07:13:00;;;;;;;8.43;5.40;;;;;;;;;;5010228;28;20810;-76
2022/06/10 07:15:26;;;;;;;7.13;5.50;;;;;;;;;;5019508;28;20029;-76
2022/06/10 07:17:52;;;;;;;7.95;5.80;;;;;;;;;;5014932;28;20065;-76
2022/06/10 07:20:28;;;;;;;6.72;5.68;;;;;;;;;;5016506;28;20404;-76
2022/06/10 07:22:54;;;;;;;7.85;5.70;;;;;;;;;;5010631;28;20492;-76
2022/06/10 07:25:21;;;;;;;7.05;5.30;;;;;;;;;;5018298;28;20079;-76
2022/06/10 07:27:48;;;;;;;7.40;5.40;;;;;;;;;;5023380;28;20030;-75
2022/06/10 07:30:16;;;;;;;7.43;5.22;;;;;;;;;;5018633;28;20627;-76
2022/06/10 07:32:42;;;;;;;6.20;4.83;;;;;;;;;;5014188;28;20041;-76
2022/06/10 07:35:08;;;;;;;7.97;5.13;;;;;;;;;;5011635;28;20049;-76
2022/06/10 07:37:34;;;;;;;9.32;5.53;;;;;;;;;;5018869;28;20070;-76
2022/06/10 07:39:59;;;;;;;7.43;5.50;;;;;;;;;;5020143;28;20033;-76
2022/06/10 07:42:25;;;;;;;5.70;5.10;;;;;;;;;;5016416;28;20052;-77
2022/06/10 07:44:51;;;;;;;9.43;5.53;;;;;;;;;;5018532;28;20044;-77
2022/06/10 07:47:17;;;;;;;9.57;5.38;;;;;;;;;;5019331;28;20033;-77
2022/06/10 07:49:43;;;;;;;8.70;5.60;;;;;;;;;;5015349;28;20112;-77
2022/06/10 07:52:09;;;;;;;8.70;5.20;;;;;;;;;;5020512;28;20022;-77
2022/06/10 07:54:36;;;;;;;14.60;6.30;;;;;;;;;;5018254;28;20037;-76
2022/06/10 07:57:03;;;;;;;7.80;5.35;;;;;;;;;;5020365;28;20585;-77
2022/06/10 07:59:30;;;;;;;7.85;5.45;;;;;;;;;;5015436;28;20036;-76
2022/06/10 08:01:56;;;;;;;6.40;5.65;;;;;;;;;;5014132;28;20038;-77
2022/06/10 08:04:22;;;;;;;8.23;5.20;;;;;;;;;;4984081;28;20034;-77
2022/06/10 08:06:50;;;;;;;7.38;5.60;;;;;;;;;;4983342;28;20038;-76
2022/06/10 08:09:20;;;;;;;7.95;5.45;;;;;;;;;;4995355;28;20909;-75
2022/06/10 08:11:48;;;;;;;9.05;5.35;;;;;;;;;;4988523;28;20034;-76
2022/06/10 08:14:14;;;;;;;8.13;5.13;;;;;;;;;;4981201;28;20434;-76
2022/06/10 08:16:40;;;;;;;8.05;5.22;;;;;;;;;;4994753;28;20038;-76
2022/06/10 08:19:06;;;;;;;6.53;5.13;;;;;;;;;;5016396;28;20033;-76
2022/06/10 08:24:20;;;;;;;7.82;5.20;;;;;;;;;;5021755;28;20644;-76
2022/06/10 08:26:45;;;;;;;6.00;5.20;;;;;;;;;;5018156;28;20524;-78
2022/06/10 08:29:11;;;;;;;5.63;4.80;;;;;;;;;;5016101;28;20096;-77
2022/06/10 08:31:37;;;;;;;7.68;5.05;;;;;;;;;;5019697;28;20048;-77
2022/06/10 08:34:03;;;;;;;7.93;5.07;;;;;;;;;;5020121;28;20117;-77
2022/06/10 08:36:30;;;;;;;6.50;5.20;;;;;;;;;;5022089;28;20049;-77
2022/06/10 08:38:56;;;;;;;6.75;5.07;;;;;;;;;;5023559;28;20048;-77
2022/06/10 08:41:46;;;;;;;7.82;4.78;;;;;;;;;;5021241;28;20029;-77
2022/06/10 08:44:50;;;;;;;6.07;4.93;;;;;;;;;;5015954;28;20034;-77
2022/06/10 08:47:44;;;;;;;8.98;4.90;;;;;;;;;;5006201;28;20124;-77
2022/06/10 08:50:46;;;;;;;7.88;4.95;;;;;;;;;;5022820;28;20033;-77
2022/06/10 08:53:49;;;;;;;6.50;4.78;;;;;;;;;;5006120;28;20052;-77
2022/06/10 08:56:25;;;;;;;8.35;4.80;;;;;;;;;;5022494;28;20037;-77
2022/06/10 08:59:11;;;;;;;6.90;4.45;;;;;;;;;;5023643;28;20033;-77
2022/06/10 09:02:05;;;;;;;6.72;5.13;;;;;;;;;;5016154;28;20072;-77
2022/06/10 09:04:55;;;;;;;5.85;4.70;;;;;;;;;;5014496;28;20033;-77
2022/06/10 09:07:32;;;;;;;6.55;4.60;;;;;;;;;;5021022;28;20144;-77
2022/06/10 09:09:59;;;;;;;7.68;4.70;;;;;;;;;;5021233;28;20116;-77
2022/06/10 09:12:47;;;;;;;5.13;4.57;;;;;;;;;;5020239;28;20046;-77
2022/06/10 09:15:13;;;;;;;6.45;4.60;;;;;;;;;;5022307;28;20056;-77
2022/06/10 09:18:03;;;;;;;6.18;4.38;;;;;;;;;;5023163;28;20112;-76
2022/06/10 09:20:39;;;;;;;6.68;4.60;;;;;;;;;;5015959;28;20104;-77
2022/06/10 09:23:28;;;;;;;5.90;4.10;;;;;;;;;;5023239;28;20500;-77
2022/06/10 09:25:59;;;;;;;4.95;4.45;;;;;;;;;;5015699;28;20049;-77
2022/06/10 09:28:24;;;;;;;8.82;4.30;;;;;;;;;;5020813;28;20489;-77
2022/06/10 09:31:02;;;;;;;6.55;4.30;;;;;;;;;;5023540;28;20044;-77
2022/06/10 09:34:02;;;;;;;5.68;4.30;;;;;;;;;;5020865;28;20042;-77
2022/06/10 09:36:39;;;;;;;6.75;4.60;;;;;;;;;;5013040;28;20050;-77
2022/06/10 09:42:18;;;;;;;7.75;4.85;;;;;;;;;;5015769;28;20045;-78
2022/06/10 09:44:49;;;;;;;8.25;4.65;;;;;;;;;;5006356;28;20041;-77
2022/06/10 09:47:34;;;;;;;8.20;4.55;;;;;;;;;;5020589;28;20060;-77
2022/06/10 09:50:04;;;;;;;8.18;4.32;;;;;;;;;;5016193;28;20533;-77
2022/06/10 09:52:33;;;;;;;6.65;4.70;;;;;;;;;;5014126;28;20056;-77
2022/06/10 09:55:22;;;;;;;8.73;4.15;;;;;;;;;;5016847;28;20072;-76
2022/06/10 09:58:06;;;;;;;8.40;4.32;;;;;;;;;;5017795;28;20026;-76
2022/06/10 10:00:43;;;;;;;6.85;4.10;;;;;;;;;;5018225;28;20030;-76
2022/06/10 10:03:51;;;;;;;4.43;3.95;;;;;;;;;;5004669;28;20172;-75
2022/06/10 10:06:25;;;;;;;4.90;3.90;;;;;;;;;;5012320;28;20050;-76
2022/06/10 10:09:03;;;;;;;4.50;3.90;;;;;;;;;;5008762;28;20695;-78
2022/06/10 10:11:29;;;;;;;7.53;4.15;;;;;;;;;;5007869;28;20037;-77
2022/06/10 10:13:58;;;;;;;7.78;4.20;;;;;;;;;;5012950;28;20127;-78
2022/06/10 10:16:45;;;;;;;4.25;3.85;;;;;;;;;;5010379;28;20064;-77
2022/06/10 10:19:43;;;;;;;5.65;4.32;;;;;;;;;;5008596;28;20073;-77
2022/06/10 10:22:22;;;;;;;6.18;4.03;;;;;;;;;;4970792;28;20050;-77
2022/06/10 10:24:48;;;;;;;;;;;;;;;;;;4973423;28;20073;-77
2022/06/10 10:27:27;;;;;;;4.65;4.25;;;;;;;;;;4962035;28;19929;-76
2022/06/10 10:30:03;;;;;;;4.95;3.88;;;;;;;;;;4968146;28;20086;-76
2022/06/10 10:32:33;;;;;;;5.65;4.57;;;;;;;;;;4972085;28;20043;-77
2022/06/10 10:35:12;;;;;;;4.88;4.28;;;;;;;;;;4968201;28;20054;-77
2022/06/10 10:37:38;;;;;;;7.63;4.40;;;;;;;;;;4965537;28;20042;-77
2022/06/10 10:40:18;;;;;;;5.75;4.43;;;;;;;;;;4967149;28;20499;-77
2022/06/10 10:42:47;;;;;;;5.32;4.10;;;;;;;;;;4966482;28;20526;-76
2022/06/10 10:45:18;;;;;;;;;;;;;;;;;;4968656;28;20651;-77
2022/06/10 10:48:00;;;;;;;6.70;4.10;;;;;;;;;;4976626;28;20620;-76
2022/06/10 10:50:32;;;;;;;6.55;4.30;;;;;;;;;;4971468;28;20041;-77
2022/06/10 10:52:59;;;;;;;8.80;4.28;;;;;;;;;;4977397;28;20069;-77
2022/06/10 10:55:36;;;;;;;5.53;4.30;;;;;;;;;;4970082;28;20082;-78
2022/06/10 10:58:24;;;;;;;5.18;4.20;;;;;;;;;;4986191;28;20051;-78
2022/06/10 11:00:57;;;;;;;6.20;3.92;;;;;;;;;;5011511;28;20098;-74
2022/06/10 11:03:25;;;;;;;5.82;3.90;;;;;;;;;;5008688;28;20480;-76
2022/06/10 11:05:52;;;;;;;4.38;4.00;;;;;;;;;;5012663;28;20112;-74
2022/06/10 11:08:23;;;;;;;7.57;4.03;;;;;;;;;;5013805;28;20032;-75
2022/06/10 11:11:21;;;;;;;4.65;4.15;;;;;;;;;;5010441;28;20037;-74
2022/06/10 11:14:01;;;;;;;6.63;4.50;;;;;;;;;;5011676;28;20033;-74
2022/06/10 11:16:35;;;;;;;6.03;3.70;;;;;;;;;;5011348;28;20045;-73
2022/06/10 11:19:14;;;;;;;4.60;3.83;;;;;;;;;;5007396;28;20097;-73
2022/06/10 11:22:11;;;;;;;4.15;3.83;;;;;;;;;;5004463;28;20033;-75
2022/06/10 11:24:41;;;;;;;4.20;3.90;;;;;;;;;;5009780;28;20045;-75
2022/06/10 11:27:24;;;;;;;4.50;4.10;;;;;;;;;;5013179;28;20115;-73
2022/06/10 11:30:04;;;;;;;5.97;4.18;;;;;;;;;;5008586;28;20057;-73
2022/06/10 11:32:38;;;;;;;7.10;4.55;;;;;;;;;;5011258;28;20834;-74
2022/06/10 11:35:20;;;;;;;7.55;4.70;;;;;;;;;;5014057;28;20065;-77
2022/06/10 11:37:49;;;;;;;5.18;4.68;;;;;;;;;;5012195;28;20120;-75
2022/06/10 11:40:20;;;;;;;8.52;4.95;;;;;;;;;;5016408;28;20048;-75
2022/06/10 11:42:52;;;;;;;6.28;4.65;;;;;;;;;;5007808;28;20641;-73
2022/06/10 11:45:37;;;;;;;7.00;5.07;;;;;;;;;;5009291;28;20030;-74
2022/06/10 11:48:20;;;;;;;6.05;4.95;;;;;;;;;;5012419;28;20501;-75
2022/06/10 11:51:01;;;;;;;5.53;4.95;;;;;;;;;;5005794;28;20467;-74
2022/06/10 11:54:03;;;;;;;5.50;5.00;;;;;;;;;;5014232;28;20615;-74
2022/06/10 11:59:45;;;;;;;5.43;4.90;;;;;;;;;;5014801;28;20042;-76
2022/06/10 12:02:20;;;;;;;5.47;4.88;;;;;;;;;;5005419;28;20045;-74
2022/06/10 12:04:56;;;;;;;5.80;4.93;;;;;;;;;;5005570;28;20061;-76
2022/06/10 12:07:27;;;;;;;6.03;5.20;;;;;;;;;;5013979;28;20038;-75
2022/06/10 12:09:56;;;;;;;5.40;5.00;;;;;;;;;;5012086;28;20092;-73
2022/06/10 12:12:29;;;;;;;5.32;4.97;;;;;;;;;;5010271;28;20040;-74
2022/06/10 12:14:58;;;;;;;5.10;4.70;;;;;;;;;;5008710;28;20567;-74
2022/06/10 12:17:35;;;;;;;5.03;4.65;;;;;;;;;;5005576;28;20048;-75
2022/06/10 12:20:10;;;;;;;5.50;5.10;;;;;;;;;;5009657;28;20103;-74
2022/06/10 12:22:36;;;;;;;5.80;5.20;;;;;;;;;;5010203;28;20037;-75
2022/06/10 12:25:21;;;;;;;6.05;5.40;;;;;;;;;;5009278;28;20037;-76
2022/06/10 12:28:05;;;;;;;5.50;5.05;;;;;;;;;;5004759;28;20046;-74
2022/06/10 12:30:53;;;;;;;5.97;5.38;;;;;;;;;;5006917;28;20037;-75
2022/06/10 12:33:42;;;;;;;6.18;5.60;;;;;;;;;;5011965;28;20086;-75
2022/06/10 12:36:15;;;;;;;6.20;5.60;;;;;;;;;;5013903;28;20034;-76
2022/06/10 12:38:43;;;;;;;5.95;5.35;;;;;;;;;;5009246;28;20490;-75
2022/06/10 12:41:12;;;;;;;5.90;5.30;;;;;;;;;;5012611;28;20037;-76
2022/06/10 12:43:43;;;;;;;7.97;5.60;;;;;;;;;;5005238;28;20042;-75
2022/06/10 12:46:35;;;;;;;5.57;5.07;;;;;;;;;;5009315;28;20081;-76
2022/06/10 12:49:36;;;;;;;6.25;5.85;;;;;;;;;;5012410;28;20038;-76
2022/06/10 12:52:21;;;;;;;6.68;6.07;;;;;;;;;;5003601;28;20164;-75
2022/06/10 12:54:57;;;;;;;6.32;5.82;;;;;;;;;;5015913;28;20034;-74
2022/06/10 12:57:37;;;;;;;6.03;5.53;;;;;;;;;;5008193;28;20072;-74
2022/06/10 13:00:17;;;;;;;6.25;5.85;;;;;;;;;;5013650;28;20048;-74
2022/06/10 13:02:45;;;;;;;6.32;5.55;;;;;;;;;;5005990;28;20634;-76
2022/06/10 13:05:37;;;;;;;6.18;5.60;;;;;;;;;;5016006;28;20034;-74
2022/06/10 13:08:33;;;;;;;5.82;5.38;;;;;;;;;;4996085;28;20085;-74
2022/06/10 13:10:59;;;;;;;5.90;5.22;;;;;;;;;;5010909;28;20092;-74
2022/06/10 13:13:25;;;;;;;5.78;5.38;;;;;;;;;;5018676;28;20037;-74
2022/06/10 13:16:16;;;;;;;5.65;5.25;;;;;;;;;;5014757;28;20092;-74
2022/06/10 13:18:53;;;;;;;5.63;5.13;;;;;;;;;;5013107;28;20037;-75
2022/06/10 13:21:35;;;;;;;5.97;5.47;;;;;;;;;;5022519;28;20402;-74
2022/06/10 13:24:08;;;;;;;5.63;5.32;;;;;;;;;;5018181;28;20033;-73
2022/06/10 13:26:34;;;;;;;5.90;5.50;;;;;;;;;;5013616;28;20149;-74
2022/06/10 13:29:18;;;;;;;6.10;5.60;;;;;;;;;;5014689;28;20029;-74
2022/06/10 13:31:53;;;;;;;5.95;5.55;;;;;;;;;;5013123;28;20129;-73
2022/06/10 13:34:30;;;;;;;5.45;5.00;;;;;;;;;;5013720;28;20393;-73
2022/06/10 13:37:18;;;;;;;5.88;5.38;;;;;;;;;;5009327;28;20033;-73
2022/06/10 13:39:45;;;;;;;6.63;5.20;;;;;;;;;;5010486;28;20061;-73
2022/06/10 13:42:20;;;;;;;5.75;5.22;;;;;;;;;;5011687;28;20045;-74
2022/06/10 13:44:49;;;;;;;5.90;5.38;;;;;;;;;;5016797;28;20508;-73
2022/06/10 13:47:29;;;;;;;5.40;4.93;;;;;;;;;;5010764;28;20045;-74
2022/06/10 13:53:01;;;;;;;5.70;5.20;;;;;;;;;;5006107;28;20076;-73
2022/06/10 13:55:27;;;;;;;5.80;5.30;;;;;;;;;;5002259;28;20033;-75
2022/06/10 13:58:05;;;;;;;6.93;5.70;;;;;;;;;;5009310;28;20040;-74
2022/06/10 14:00:35;;;;;;;7.50;5.90;;;;;;;;;;5005895;28;20038;-74
2022/06/10 14:03:03;;;;;;;7.13;5.43;;;;;;;;;;5017804;28;20034;-73
2022/06/10 14:05:30;;;;;;;7.03;5.43;;;;;;;;;;5015331;28;20030;-76
2022/06/10 14:08:00;;;;;;;5.82;5.10;;;;;;;;;;5011760;28;20069;-74
2022/06/10 14:10:43;;;;;;;5.55;5.18;;;;;;;;;;5008707;28;20034;-73
2022/06/10 14:13:20;;;;;;;5.95;5.55;;;;;;;;;;5014808;28;20037;-73
2022/06/10 14:15:58;;;;;;;5.50;5.10;;;;;;;;;;5016500;28;20044;-75
2022/06/10 14:18:26;;;;;;;5.78;5.35;;;;;;;;;;5007435;28;20084;-75
2022/06/10 14:20:54;;;;;;;5.80;5.20;;;;;;;;;;5010547;28;20037;-75
2022/06/10 14:23:27;;;;;;;5.50;5.20;;;;;;;;;;5011196;28;20657;-76
2022/06/10 14:26:13;;;;;;;5.65;5.25;;;;;;;;;;5010708;28;20038;-72
2022/06/10 14:28:40;;;;;;;5.82;5.43;;;;;;;;;;5013624;28;20042;-74
2022/06/10 14:31:18;;;;;;;5.53;5.13;;;;;;;;;;5016108;28;20036;-73
2022/06/10 14:33:49;;;;;;;6.03;5.47;;;;;;;;;;5006109;28;20071;-74
2022/06/10 14:36:22;;;;;;;6.00;5.50;;;;;;;;;;5010653;28;20044;-77
2022/06/10 14:39:06;;;;;;;5.53;5.13;;;;;;;;;;5011285;28;20037;-75
2022/06/10 14:41:33;;;;;;;5.63;5.20;;;;;;;;;;5013661;28;20037;-75
2022/06/10 14:44:19;;;;;;;5.07;4.78;;;;;;;;;;5010011;28;20157;-76
2022/06/10 14:47:04;;;;;;;5.70;5.30;;;;;;;;;;5017904;28;20087;-75
2022/06/10 14:50:05;;;;;;;7.80;5.30;;;;;;;;;;5010110;28;20133;-74
2022/06/10 14:52:36;;;;;;;6.32;5.65;;;;;;;;;;5002800;28;20068;-73
2022/06/10 14:55:03;;;;;;;5.63;5.22;;;;;;;;;;5014786;28;20037;-74
2022/06/10 14:57:31;;;;;;;5.78;5.28;;;;;;;;;;5007751;28;20041;-75
2022/06/10 14:59:57;;;;;;;6.50;5.53;;;;;;;;;;5007018;28;20029;-74
2022/06/10 15:02:23;;;;;;;6.38;5.78;;;;;;;;;;5007479;28;20128;-74
2022/06/10 15:07:35;;;;;;;5.72;5.30;;;;;;;;;;5009365;28;20048;-75
2022/06/10 15:10:11;;;;;;;5.70;5.20;;;;;;;;;;5016775;28;20041;-74
2022/06/10 15:12:37;;;;;;;5.88;5.47;;;;;;;;;;5013450;28;20037;-74
2022/06/10 15:15:03;;;;;;;5.95;5.45;;;;;;;;;;5013027;28;20401;-74
2022/06/10 15:17:30;;;;;;;6.50;5.38;;;;;;;;;;5014285;28;20025;-74
2022/06/10 15:19:56;;;;;;;5.90;5.50;;;;;;;;;;5010796;28;20045;-76
2022/06/10 15:22:24;;;;;;;11.93;6.30;;;;;;;;;;5016670;28;20053;-76
2022/06/10 15:24:51;;;;;;;6.30;5.70;;;;;;;;;;5011077;28;20034;-77
2022/06/10 15:27:18;;;;;;;6.15;5.57;;;;;;;;;;5007637;28;20038;-76
2022/06/10 15:29:44;;;;;;;6.28;5.30;;;;;;;;;;5013398;28;20037;-76
2022/06/10 15:32:16;;;;;;;6.03;5.43;;;;;;;;;;5012300;28;20038;-75
2022/06/10 15:43:03;;;;;;;5.60;5.20;;;;;;;;;;5008442;28;20099;-76
2022/06/10 15:45:29;;;;;;;5.97;5.35;;;;;;;;;;5015888;28;20045;-76
2022/06/10 15:47:55;;;;;;;5.63;5.13;;;;;;;;;;5014637;28;20048;-77
2022/06/10 15:50:22;;;;;;;8.00;5.72;;;;;;;;;;5007141;28;20514;-76
2022/06/10 15:52:49;;;;;;;6.03;4.95;;;;;;;;;;5007561;28;20121;-75